createdAt,value
2018-02-09T00:01:21.883Z,16.07
2018-02-09T00:03:49.408Z,17.83
2018-02-09T00:06:16.947Z,17.33
2018-02-09T00:08:44.520Z,17.80
2018-02-09T00:11:12.085Z,17.62
2018-02-09T00:13:39.603Z,16.67
2018-02-09T00:16:07.115Z,16.80
2018-02-09T00:18:34.678Z,17.00
2018-02-09T00:21:02.221Z,16.23
2018-02-09T00:23:29.776Z,16.50
2018-02-09T00:25:57.307Z,16.67
2018-02-09T00:28:24.865Z,15.90
2018-02-09T00:30:52.414Z,15.90
2018-02-09T00:33:19.923Z,16.57
2018-02-09T00:35:47.486Z,16.93
2018-02-09T00:38:15.008Z,17.00
2018-02-09T00:40:42.586Z,17.10
2018-02-09T00:43:10.105Z,17.27
2018-02-09T00:45:37.666Z,16.23
2018-02-09T00:48:05.195Z,17.50
2018-02-09T00:50:32.753Z,16.83
2018-02-09T00:53:00.292Z,16.83
2018-02-09T00:55:27.842Z,17.33
2018-02-09T00:57:55.414Z,16.87
2018-02-09T01:00:22.942Z,16.80
2018-02-09T01:02:50.518Z,17.03
2018-02-09T01:05:18.120Z,17.40
2018-02-09T01:07:45.651Z,17.40
2018-02-09T01:10:13.195Z,16.37
2018-02-09T01:12:40.745Z,15.30
2018-02-09T01:15:08.304Z,17.75
2018-02-09T01:17:35.814Z,17.05
2018-02-09T01:20:03.805Z,16.83
2018-02-09T01:22:31.600Z,16.70
2018-02-09T01:24:59.670Z,16.60
2018-02-09T01:27:27.209Z,15.90
2018-02-09T01:29:54.720Z,15.80
2018-02-09T01:32:22.294Z,15.47
2018-02-09T01:34:49.821Z,16.97
2018-02-09T01:37:17.966Z,16.77
2018-02-09T01:39:45.929Z,15.87
2018-02-09T01:42:13.434Z,17.17
2018-02-09T01:44:40.988Z,17.10
2018-02-09T01:47:08.520Z,16.97
2018-02-09T01:49:36.033Z,16.77
2018-02-09T01:52:03.599Z,17.70
2018-02-09T01:54:31.134Z,17.17
2018-02-09T01:56:58.693Z,16.27
2018-02-09T01:59:26.513Z,18.00
2018-02-09T02:01:54.025Z,18.00
2018-02-09T02:04:21.545Z,17.67
2018-02-09T02:06:49.104Z,17.53
2018-02-09T02:09:16.662Z,18.03
2018-02-09T02:11:44.198Z,16.70
2018-02-09T02:14:11.767Z,16.43
2018-02-09T02:16:39.320Z,17.02
2018-02-09T02:19:06.837Z,18.23
2018-02-09T02:21:34.406Z,17.87
2018-02-09T02:24:01.929Z,16.83
2018-02-09T02:26:29.451Z,17.17
2018-02-09T02:28:57.007Z,17.73
2018-02-09T02:31:24.572Z,17.77
2018-02-09T02:33:52.079Z,17.97
2018-02-09T02:36:19.636Z,17.40
2018-02-09T02:38:47.158Z,17.87
2018-02-09T02:41:14.893Z,17.27
2018-02-09T02:43:42.434Z,17.33
2018-02-09T02:46:09.956Z,18.43
2018-02-09T02:48:37.527Z,17.60
2018-02-09T02:51:05.093Z,16.80
2018-02-09T02:53:32.682Z,17.77
2018-02-09T02:56:00.187Z,17.90
2018-02-09T02:58:27.753Z,18.13
2018-02-09T03:00:55.326Z,18.30
2018-02-09T03:03:22.849Z,18.03
2018-02-09T03:05:50.412Z,19.07
2018-02-09T03:08:17.969Z,17.67
2018-02-09T03:10:45.538Z,18.92
2018-02-09T03:13:13.099Z,17.63
2018-02-09T03:15:40.658Z,17.20
2018-02-09T03:18:08.220Z,17.62
2018-02-09T03:20:35.728Z,17.70
2018-02-09T03:23:03.244Z,17.65
2018-02-09T03:25:30.823Z,17.90
2018-02-09T03:27:58.956Z,18.00
2018-02-09T03:30:26.685Z,17.50
2018-02-09T03:32:54.228Z,16.90
2018-02-09T03:35:21.755Z,16.80
2018-02-09T03:37:49.320Z,17.60
2018-02-09T03:40:16.845Z,18.00
2018-02-09T03:42:44.367Z,18.40
2018-02-09T03:45:11.907Z,17.33
2018-02-09T03:47:39.424Z,16.12
2018-02-09T03:50:07.001Z,16.90
2018-02-09T03:52:34.530Z,18.27
2018-02-09T03:55:02.073Z,17.93
2018-02-09T03:57:29.591Z,17.40
2018-02-09T03:59:57.140Z,17.17
2018-02-09T04:02:24.688Z,17.93
2018-02-09T04:04:52.278Z,16.43
2018-02-09T04:07:19.840Z,17.17
2018-02-09T04:09:47.363Z,17.03
2018-02-09T04:12:15.096Z,16.93
2018-02-09T04:14:42.626Z,17.85
2018-02-09T04:17:10.191Z,16.90
2018-02-09T04:19:37.700Z,17.10
2018-02-09T04:22:05.231Z,17.97
2018-02-09T04:24:32.771Z,16.13
2018-02-09T04:27:00.289Z,17.70
2018-02-09T04:29:27.927Z,17.00
2018-02-09T04:31:55.449Z,18.10
2018-02-09T04:34:22.960Z,15.57
2018-02-09T04:36:50.502Z,16.63
2018-02-09T04:39:18.017Z,17.53
2018-02-09T04:41:45.533Z,16.83
2018-02-09T04:44:13.075Z,16.75
2018-02-09T04:46:40.630Z,16.85
2018-02-09T04:49:08.140Z,16.83
2018-02-09T04:51:35.690Z,16.77
2018-02-09T04:54:03.229Z,17.17
2018-02-09T04:56:30.785Z,16.67
2018-02-09T04:58:58.339Z,17.97
2018-02-09T05:01:26.764Z,16.35
2018-02-09T05:03:54.311Z,17.67
2018-02-09T05:06:21.865Z,16.60
2018-02-09T05:08:49.576Z,16.03
2018-02-09T05:11:17.113Z,16.90
2018-02-09T05:13:44.674Z,16.92
2018-02-09T05:16:12.229Z,16.30
2018-02-09T05:18:39.787Z,16.50
2018-02-09T05:21:07.319Z,16.60
2018-02-09T05:23:34.906Z,17.90
2018-02-09T05:26:02.429Z,16.70
2018-02-09T05:28:29.981Z,16.60
2018-02-09T05:30:57.547Z,17.20
2018-02-09T05:33:25.073Z,16.90
2018-02-09T05:35:52.754Z,17.53
2018-02-09T05:38:20.296Z,17.17
2018-02-09T05:40:47.911Z,17.87
2018-02-09T05:43:15.434Z,15.93
2018-02-09T05:45:43.014Z,17.03
2018-02-09T05:48:10.560Z,15.83
2018-02-09T05:50:38.092Z,16.20
2018-02-09T05:53:05.653Z,17.55
2018-02-09T05:55:33.201Z,17.08
2018-02-09T05:58:00.711Z,17.35
2018-02-09T06:00:28.278Z,17.43
2018-02-09T06:02:56.846Z,17.17
2018-02-09T06:05:24.352Z,16.83
2018-02-09T06:07:51.897Z,17.53
2018-02-09T06:10:19.413Z,15.53
2018-02-09T06:12:46.956Z,16.87
2018-02-09T06:15:14.468Z,16.80
2018-02-09T06:17:42.016Z,16.43
2018-02-09T06:20:09.531Z,17.70
2018-02-09T06:22:37.080Z,17.87
2018-02-09T06:25:04.591Z,17.47
2018-02-09T06:27:32.095Z,16.17
2018-02-09T06:29:59.645Z,17.17
2018-02-09T06:32:27.708Z,16.80
2018-02-09T06:34:55.266Z,17.13
2018-02-09T06:37:22.785Z,17.43
2018-02-09T06:39:50.333Z,17.37
2018-02-09T06:42:17.845Z,17.37
2018-02-09T06:44:45.401Z,16.10
2018-02-09T06:47:12.944Z,16.93
2018-02-09T06:49:40.470Z,17.48
2018-02-09T06:52:08.020Z,17.40
2018-02-09T06:54:35.550Z,16.40
2018-02-09T06:57:03.082Z,16.87
2018-02-09T06:59:30.658Z,18.43
2018-02-09T07:01:58.186Z,17.53
2018-02-09T07:04:25.753Z,17.87
2018-02-09T07:06:53.264Z,16.83
2018-02-09T07:09:20.772Z,17.30
2018-02-09T07:11:48.310Z,17.77
2018-02-09T07:14:15.830Z,17.40
2018-02-09T07:16:43.349Z,19.03
2018-02-09T07:19:10.900Z,17.50
2018-02-09T07:21:38.644Z,17.70
2018-02-09T07:24:06.150Z,18.33
2018-02-09T07:26:33.692Z,18.00
2018-02-09T07:29:01.244Z,18.20
2018-02-09T09:09:21.468Z,27.07
2018-02-09T09:11:49.044Z,86.77
2018-02-09T09:14:16.574Z,100.17
2018-02-09T09:16:44.117Z,95.30
2018-02-09T09:19:11.823Z,281.17
2018-02-09T09:21:39.380Z,198.60
2018-02-09T09:24:06.979Z,146.10
2018-02-09T09:26:34.520Z,275.97
2018-02-09T09:29:02.080Z,219.20
2018-02-09T09:31:29.600Z,272.20
2018-02-09T09:33:57.149Z,296.10
2018-02-09T09:36:24.697Z,247.27
2018-02-09T09:38:52.691Z,240.13
2018-02-09T09:41:20.651Z,216.57
2018-02-09T09:43:48.199Z,157.43
2018-02-09T09:46:15.730Z,124.60
2018-02-09T09:48:43.546Z,104.00
2018-02-09T09:51:11.681Z,95.47
2018-02-09T09:53:39.238Z,88.60
2018-02-09T09:56:07.201Z,139.70
2018-02-09T09:58:34.744Z,136.97
2018-02-09T10:01:02.778Z,160.67
2018-02-09T10:03:30.313Z,104.90
2018-02-09T10:05:57.892Z,81.40
2018-02-09T10:08:25.459Z,84.10
2018-02-09T10:10:53.018Z,74.27
2018-02-09T10:13:20.785Z,115.03
2018-02-09T10:15:48.354Z,177.63
2018-02-09T10:18:15.884Z,208.83
2018-02-09T10:20:43.409Z,158.50
2018-02-09T10:23:10.962Z,250.47
2018-02-09T10:25:38.512Z,168.30
2018-02-09T10:28:06.094Z,166.23
2018-02-09T10:30:33.738Z,107.70
2018-02-09T10:33:01.310Z,80.57
2018-02-09T10:35:28.815Z,72.73
2018-02-09T10:37:56.558Z,63.10
2018-02-09T10:40:24.104Z,59.80
2018-02-09T10:42:51.626Z,60.27
2018-02-09T10:45:19.187Z,47.93
2018-02-09T10:47:46.709Z,85.60
2018-02-09T10:50:14.271Z,91.13
2018-02-09T10:52:41.794Z,88.17
2018-02-09T10:55:09.327Z,94.90
2018-02-09T10:57:36.922Z,84.30
2018-02-09T11:00:04.526Z,77.60
2018-02-09T11:02:32.050Z,135.33
2018-02-09T11:04:59.599Z,177.90
2018-02-09T11:07:27.690Z,175.37
2018-02-09T11:09:55.221Z,121.57
2018-02-09T11:12:22.809Z,107.97
2018-02-09T11:14:50.308Z,97.37
2018-02-09T11:17:17.852Z,108.17
2018-02-09T11:19:45.394Z,125.10
2018-02-09T11:22:12.951Z,75.30
2018-02-09T11:24:40.472Z,59.57
2018-02-09T11:27:08.044Z,50.33
2018-02-09T11:29:35.559Z,50.03
2018-02-09T11:32:03.059Z,52.30
2018-02-09T11:34:30.625Z,58.40
2018-02-09T11:36:58.147Z,60.47
2018-02-09T11:39:25.676Z,68.33
2018-02-09T11:41:53.237Z,60.93
2018-02-09T11:44:20.971Z,59.00
2018-02-09T11:46:48.517Z,52.53
2018-02-09T11:49:16.038Z,57.30
2018-02-09T11:51:43.605Z,47.87
2018-02-09T11:54:11.111Z,74.17
2018-02-09T11:56:38.948Z,84.93
2018-02-09T11:59:06.514Z,64.70
2018-02-09T12:01:34.022Z,73.27
2018-02-09T12:04:01.574Z,104.70
2018-02-09T12:06:29.115Z,82.33
2018-02-09T12:08:56.659Z,60.97
2018-02-09T12:11:24.244Z,46.97
2018-02-09T12:13:51.758Z,58.60
2018-02-09T12:16:19.353Z,75.90
2018-02-09T12:18:46.864Z,186.37
2018-02-09T12:21:14.441Z,347.23
2018-02-09T12:23:42.012Z,355.63
2018-02-09T12:26:09.580Z,346.17
2018-02-09T12:28:37.123Z,264.07
2018-02-09T12:31:04.976Z,168.57
2018-02-09T12:33:32.502Z,139.57
2018-02-09T12:36:00.352Z,86.30
2018-02-09T12:38:28.175Z,73.67
2018-02-09T12:40:56.159Z,33.77
2018-02-09T12:43:24.081Z,41.97
2018-02-09T12:45:51.652Z,53.77
2018-02-09T12:48:19.181Z,91.33
2018-02-09T12:50:46.983Z,62.00
2018-02-09T12:53:15.830Z,63.63
2018-02-09T12:55:43.690Z,82.77
2018-02-09T12:58:11.592Z,60.67
2018-02-09T13:00:39.139Z,84.10
2018-02-09T13:03:06.872Z,93.13
2018-02-09T13:05:34.781Z,55.90
2018-02-09T13:08:02.327Z,49.67
2018-02-09T13:10:29.894Z,39.03
2018-02-09T13:13:05.167Z,38.27
2018-02-09T13:15:33.604Z,34.23
2018-02-09T13:18:01.134Z,36.57
2018-02-09T13:20:28.694Z,33.17
2018-02-09T13:23:07.955Z,29.23
2018-02-09T13:25:35.620Z,30.07
2018-02-09T13:28:03.143Z,28.57
2018-02-09T13:30:30.730Z,33.60
2018-02-09T13:33:10.108Z,26.00
2018-02-09T13:35:37.646Z,27.73
2018-02-09T13:38:05.202Z,28.50
2018-02-09T13:40:32.817Z,30.07
2018-02-09T13:43:01.179Z,28.60
2018-02-09T13:45:28.735Z,31.50
2018-02-09T13:47:56.269Z,28.37
2018-02-09T13:50:23.860Z,31.50
2018-02-09T13:52:51.383Z,36.43
2018-02-09T13:55:18.964Z,48.83
2018-02-09T13:57:46.474Z,40.03
2018-02-09T14:00:14.039Z,30.37
2018-02-09T14:02:41.570Z,75.57
2018-02-09T14:05:09.135Z,48.60
2018-02-09T14:07:36.742Z,41.30
2018-02-09T14:10:04.258Z,30.93
2018-02-09T14:12:31.804Z,36.63
2018-02-09T14:14:59.389Z,34.47
2018-02-09T14:17:26.981Z,29.60
2018-02-09T14:19:54.566Z,25.37
2018-02-09T14:22:22.221Z,22.33
2018-02-09T14:24:49.778Z,23.73
2018-02-09T14:27:17.604Z,27.80
2018-02-09T14:29:45.498Z,27.33
2018-02-09T14:32:13.029Z,24.63
2018-02-09T14:34:40.604Z,23.13
2018-02-09T14:37:08.150Z,22.90
2018-02-09T14:43:22.495Z,20.63
2018-02-09T14:45:50.030Z,22.63
2018-02-09T14:48:17.634Z,20.37
2018-02-09T14:50:45.146Z,22.27
2018-02-09T14:53:12.676Z,28.33
2018-02-09T14:55:40.203Z,27.37
2018-02-09T14:58:07.723Z,21.77
2018-02-09T15:00:35.286Z,26.40
2018-02-09T15:03:02.838Z,24.67
2018-02-09T15:05:30.431Z,24.60
2018-02-09T15:07:57.949Z,32.00
2018-02-09T15:10:25.471Z,23.90
2018-02-09T15:12:52.972Z,21.90
2018-02-09T15:15:20.515Z,22.67
2018-02-09T15:17:48.015Z,15.43
2018-02-09T15:20:15.798Z,19.47
2018-02-09T15:22:43.299Z,15.97
2018-02-09T15:25:10.852Z,17.07
2018-02-09T15:27:38.375Z,17.93
2018-02-09T15:30:05.884Z,15.63
2018-02-09T15:32:33.435Z,16.67
2018-02-09T15:35:00.995Z,16.47
2018-02-09T15:37:28.602Z,16.87
2018-02-09T15:39:56.100Z,14.57
2018-02-09T15:42:23.645Z,13.47
2018-02-09T15:44:51.150Z,14.63
2018-02-09T15:47:18.704Z,15.37
2018-02-09T15:49:46.270Z,13.20
2018-02-09T15:52:13.799Z,14.27
2018-02-09T15:54:41.322Z,15.00
2018-02-09T15:57:08.869Z,13.17
2018-02-09T15:59:36.423Z,14.70
2018-02-09T16:02:04.024Z,15.13
2018-02-09T16:04:31.529Z,13.27
2018-02-09T16:06:59.069Z,13.90
2018-02-09T16:09:26.585Z,12.40
2018-02-09T16:11:54.133Z,12.87
2018-02-09T16:14:21.684Z,12.57
2018-02-09T16:16:49.195Z,12.77
2018-02-09T16:19:17.142Z,13.53
2018-02-09T16:21:44.678Z,12.40
2018-02-09T16:24:12.211Z,11.67
2018-02-09T16:26:39.752Z,12.67
2018-02-09T16:29:07.270Z,11.97
2018-02-09T16:31:34.802Z,12.70
2018-02-09T16:34:02.354Z,11.57
2018-02-09T16:36:29.869Z,11.70
2018-02-09T16:38:57.416Z,10.80
2018-02-09T16:41:24.937Z,11.00
2018-02-09T16:43:52.471Z,11.30
2018-02-09T16:46:20.017Z,11.33
2018-02-09T16:48:47.515Z,11.07
2018-02-09T16:51:15.059Z,10.53
2018-02-09T16:53:42.814Z,11.77
2018-02-09T16:56:10.668Z,10.27
2018-02-09T16:58:38.230Z,11.70
2018-02-09T17:01:05.763Z,9.67
2018-02-09T17:03:33.397Z,10.10
2018-02-09T17:06:01.095Z,9.93
2018-02-09T17:08:29.659Z,9.77
2018-02-09T17:10:57.702Z,10.27
2018-02-09T17:13:26.345Z,10.47
2018-02-09T17:15:53.965Z,10.10
2018-02-09T17:18:21.497Z,9.93
2018-02-09T17:20:49.057Z,10.90
2018-02-09T17:23:16.610Z,10.13
2018-02-09T17:25:44.207Z,13.87
2018-02-09T17:28:11.732Z,21.80
2018-02-09T17:30:39.303Z,19.23
2018-02-09T17:33:11.578Z,12.47
2018-02-09T17:35:40.956Z,17.67
2018-02-09T17:38:08.665Z,20.70
2018-02-09T17:40:36.455Z,16.17
2018-02-09T17:43:03.991Z,16.17
2018-02-09T17:45:31.539Z,15.87
2018-02-09T17:47:59.041Z,10.23
2018-02-09T17:50:26.577Z,13.50
2018-02-09T17:52:54.148Z,15.70
2018-02-09T17:55:21.680Z,14.83
2018-02-09T17:57:49.229Z,11.03
2018-02-09T18:00:16.736Z,10.30
2018-02-09T18:02:44.263Z,10.33
2018-02-09T18:05:11.874Z,11.67
2018-02-09T18:07:39.808Z,10.87
2018-02-09T18:10:07.338Z,9.30
2018-02-09T18:12:34.892Z,14.17
2018-02-09T18:15:02.396Z,10.97
2018-02-09T18:17:30.856Z,8.87
2018-02-09T18:19:58.730Z,9.53
2018-02-09T18:22:26.273Z,9.07
2018-02-09T18:24:53.831Z,9.80
2018-02-09T18:27:21.705Z,9.30
2018-02-09T18:29:49.208Z,9.87
2018-02-09T18:32:16.752Z,7.97
2018-02-09T18:34:44.270Z,8.33
2018-02-09T18:37:11.944Z,7.97
2018-02-09T18:39:39.525Z,8.07
2018-02-09T18:42:07.061Z,10.40
2018-02-09T18:44:34.599Z,8.60
2018-02-09T18:47:02.138Z,8.80
2018-02-09T18:49:29.658Z,8.10
2018-02-09T18:51:57.167Z,9.30
2018-02-09T18:54:24.729Z,9.27
2018-02-09T18:56:52.225Z,8.23
2018-02-09T18:59:19.809Z,10.27
2018-02-09T19:01:47.317Z,7.93
2018-02-09T19:04:14.860Z,8.70
2018-02-09T19:06:42.367Z,8.30
2018-02-09T19:09:10.152Z,9.07
2018-02-09T19:11:38.074Z,8.10
2018-02-09T19:14:06.444Z,9.97
2018-02-09T19:16:34.442Z,10.17
2018-02-09T19:19:03.028Z,12.27
2018-02-09T19:21:30.966Z,14.47
2018-02-09T19:23:58.846Z,8.57
2018-02-09T19:26:26.658Z,9.33
2018-02-09T19:28:54.501Z,10.63
2018-02-09T19:31:22.428Z,8.63
2018-02-09T19:33:50.555Z,10.30
2018-02-09T19:36:18.380Z,8.93
2018-02-09T19:38:46.205Z,9.40
2018-02-09T19:41:14.240Z,8.33
2018-02-09T19:43:42.210Z,12.10
2018-02-09T19:46:10.139Z,8.73
2018-02-09T19:48:38.106Z,10.30
2018-02-09T19:51:06.014Z,9.97
2018-02-09T19:53:33.907Z,10.77
2018-02-09T19:56:02.005Z,11.87
2018-02-09T19:58:29.554Z,13.03
2018-02-09T20:00:57.498Z,9.10
2018-02-09T20:03:25.226Z,9.87
2018-02-09T20:05:53.143Z,8.77
2018-02-09T20:08:21.067Z,9.23
2018-02-09T20:10:48.674Z,11.90
2018-02-09T20:13:16.639Z,8.53
2018-02-09T20:15:44.573Z,13.80
2018-02-09T20:18:12.355Z,7.73
2018-02-09T20:20:40.358Z,8.30
2018-02-09T20:23:08.564Z,8.50
2018-02-09T20:25:36.721Z,11.37
2018-02-09T20:28:04.633Z,11.37
2018-02-09T20:30:32.569Z,13.33
2018-02-09T20:33:00.754Z,9.23
2018-02-09T20:35:29.025Z,7.77
2018-02-09T20:37:57.513Z,8.80
2018-02-09T20:40:25.198Z,7.53
2018-02-09T20:42:52.696Z,7.43
2018-02-09T20:45:20.254Z,18.50
2018-02-09T20:47:47.766Z,17.87
2018-02-09T20:50:15.279Z,24.83
2018-02-09T20:52:42.855Z,51.13
2018-02-09T20:55:10.808Z,27.30
2018-02-09T20:57:38.369Z,19.30
2018-02-09T21:00:05.880Z,17.63
2018-02-09T21:02:33.833Z,19.43
2018-02-09T21:05:01.774Z,16.43
2018-02-09T21:07:29.764Z,15.67
2018-02-09T21:09:57.637Z,10.57
2018-02-09T21:12:25.696Z,11.30
2018-02-09T21:14:53.698Z,12.37
2018-02-09T21:17:21.628Z,13.50
2018-02-09T21:19:49.653Z,9.07
2018-02-09T21:22:18.088Z,10.33
2018-02-09T21:24:45.603Z,10.60
2018-02-09T21:27:13.280Z,9.23
2018-02-09T21:29:40.846Z,7.87
2018-02-09T21:32:08.381Z,10.20
2018-02-09T21:34:35.912Z,8.90
2018-02-09T21:37:03.415Z,12.60
2018-02-09T21:39:30.918Z,7.97
2018-02-09T21:41:58.473Z,7.87
2018-02-09T21:44:25.998Z,7.80
2018-02-09T21:46:53.544Z,6.57
2018-02-09T21:49:21.079Z,6.97
2018-02-09T21:51:48.596Z,9.07
2018-02-09T21:54:16.174Z,9.50
2018-02-09T21:56:43.716Z,7.40
2018-02-09T21:59:11.230Z,6.50
2018-02-09T22:01:38.737Z,8.03
2018-02-09T22:04:06.277Z,6.73
2018-02-09T22:06:33.918Z,7.13
2018-02-09T22:09:01.503Z,6.97
2018-02-09T22:11:29.000Z,5.80
2018-02-09T22:13:56.526Z,7.20
2018-02-09T22:16:24.075Z,6.87
2018-02-09T22:18:51.824Z,6.90
2018-02-09T22:21:19.376Z,9.10
2018-02-09T22:23:46.867Z,8.37
2018-02-09T22:26:14.430Z,6.63
2018-02-09T22:28:41.967Z,6.63
2018-02-09T22:31:09.503Z,6.83
2018-02-09T22:33:37.051Z,7.50
2018-02-09T22:36:04.606Z,6.63
2018-02-09T22:38:32.249Z,6.83
2018-02-09T22:41:00.109Z,7.40
2018-02-09T22:43:27.834Z,6.70
2018-02-09T22:45:55.383Z,6.83
2018-02-09T22:48:22.957Z,6.83
2018-02-09T22:50:50.515Z,7.33
2018-02-09T22:53:18.119Z,6.60
2018-02-09T22:55:45.624Z,6.40
2018-02-09T22:58:13.209Z,6.97
2018-02-09T23:00:40.808Z,6.07
2018-02-09T23:03:08.365Z,6.57
2018-02-09T23:05:35.892Z,7.23
2018-02-09T23:08:03.533Z,6.47
2018-02-09T23:10:31.154Z,6.37
2018-02-09T23:12:58.675Z,7.43
2018-02-09T23:15:26.317Z,6.80
2018-02-09T23:17:53.832Z,7.23
2018-02-09T23:20:21.390Z,6.80
2018-02-09T23:22:48.917Z,7.03
2018-02-09T23:25:16.500Z,6.90
2018-02-09T23:27:44.051Z,6.63
2018-02-09T23:30:11.597Z,6.47
2018-02-09T23:32:39.163Z,6.83
2018-02-09T23:35:06.770Z,7.77
2018-02-09T23:37:34.359Z,7.60
2018-02-09T23:40:01.987Z,16.40
2018-02-09T23:42:29.579Z,13.80
2018-02-09T23:44:57.166Z,15.60
2018-02-09T23:47:25.003Z,11.17
2018-02-09T23:49:52.626Z,16.20
2018-02-09T23:52:20.755Z,10.70
2018-02-09T23:54:49.287Z,13.23
2018-02-09T23:57:17.098Z,10.47
2018-02-09T23:59:44.715Z,8.67
